Time;durP1;ratioP1;P1;durP2;ratioP2;P2;SDS_P1;SDS_P2;PMS_P1;PMS_P2;Temp;Humidity;BMP_temperature;BMP_pressure;BME280_temperature;BME280_humidity;BME280_pressure;Samples;Min_cycle;Max_cycle;Signal;HPM_P1;HPM_P2
2022/05/14 00:00:58;;;;;;;21.73;3.80;;;;;;;13.39;75.96;102119.34;5047559;28;20036;-76
2022/05/14 00:03:25;;;;;;;19.60;4.00;;;;;;;13.38;76.39;102113.19;5045473;28;20095;-76
2022/05/14 00:05:53;;;;;;;17.33;4.10;;;;;;;13.38;76.84;102122.91;5047139;28;20029;-76
2022/05/14 00:08:19;;;;;;;29.95;4.15;;;;;;;13.37;76.90;102122.03;5026770;28;20065;-76
2022/05/14 00:13:28;;;;;;;19.23;3.75;;;;;;;13.40;76.83;102111.38;5045851;28;20044;-77
2022/05/14 00:15:54;;;;;;;24.80;4.75;;;;;;;13.37;77.22;102114.09;5046621;28;20028;-74
2022/05/14 00:18:21;;;;;;;21.63;4.57;;;;;;;13.43;77.18;102114.84;5045599;28;20021;-75
2022/05/14 00:20:47;;;;;;;21.15;4.63;;;;;;;13.42;77.62;102113.13;5045186;28;20021;-74
2022/05/14 00:23:14;;;;;;;24.27;4.18;;;;;;;13.37;77.62;102116.72;5044768;28;20029;-75
2022/05/14 00:25:39;;;;;;;27.67;4.88;;;;;;;13.36;78.10;102107.06;5044695;28;20059;-76
2022/05/14 00:28:05;;;;;;;30.45;5.10;;;;;;;13.37;77.96;102108.78;5046221;28;20111;-76
2022/05/14 00:30:31;;;;;;;31.33;6.00;;;;;;;13.37;78.37;102110.59;5045969;28;20017;-76
2022/05/14 00:32:57;;;;;;;19.50;4.50;;;;;;;13.29;78.80;102113.41;5046480;28;20112;-76
2022/05/14 00:35:22;;;;;;;23.48;5.07;;;;;;;13.22;79.26;102120.63;5045028;28;20036;-75
2022/05/14 00:37:48;;;;;;;24.40;5.93;;;;;;;13.26;79.35;102105.56;5045034;28;20029;-77
2022/05/14 00:40:26;;;;;;;30.73;6.20;;;;;;;13.26;79.16;102100.25;5027379;28;20020;-76
2022/05/14 00:42:52;;;;;;;27.75;5.15;;;;;;;13.30;78.98;102109.84;5045571;28;20043;-74
2022/05/14 00:45:18;;;;;;;22.60;5.18;;;;;;;13.34;78.76;102108.88;5045231;28;20025;-78
2022/05/14 00:47:48;;;;;;;25.85;5.13;;;;;;;13.33;79.39;102112.44;5030599;28;20021;-75
2022/05/14 00:50:18;;;;;;;33.58;5.68;;;;;;;13.33;79.15;102106.28;5024334;28;20032;-76
2022/05/14 00:52:44;;;;;;;32.70;5.68;;;;;;;13.23;79.72;102105.63;5026608;28;20048;-75
2022/05/14 00:55:10;;;;;;;24.95;5.30;;;;;;;13.20;79.68;102092.47;5045008;28;20029;-73
2022/05/14 00:57:38;;;;;;;26.15;5.22;;;;;;;13.17;79.66;102105.78;5044788;28;20480;-76
2022/05/14 01:00:10;;;;;;;27.63;5.97;;;;;;;13.18;80.05;102104.88;5027443;28;20494;-74
2022/05/14 01:02:36;;;;;;;20.05;5.43;;;;;;;13.16;79.79;102102.28;5045109;28;20423;-75
2022/05/14 01:05:02;;;;;;;30.02;6.30;;;;;;;13.17;79.93;102108.41;5044972;28;20049;-76
2022/05/14 01:07:27;;;;;;;25.35;5.45;;;;;;;13.13;80.12;102108.50;5045322;28;20154;-75
2022/05/14 01:09:57;;;;;;;26.17;5.65;;;;;;;13.13;80.10;102113.78;5044416;28;20033;-75
2022/05/14 01:12:23;;;;;;;34.45;6.07;;;;;;;13.12;80.34;102112.06;5023032;28;20045;-75
2022/05/14 01:14:49;;;;;;;28.98;6.15;;;;;;;13.09;80.37;102109.47;5024039;28;20032;-76
2022/05/14 01:17:14;;;;;;;26.00;5.40;;;;;;;13.06;80.73;102106.06;5028743;28;20032;-76
2022/05/14 01:19:39;;;;;;;35.28;6.28;;;;;;;13.11;80.34;102110.31;5045807;28;20033;-78
2022/05/14 01:22:15;;;;;;;29.00;6.13;;;;;;;13.01;80.43;102103.50;5044241;28;20033;-74
2022/05/14 01:27:36;;;;;;;47.95;7.50;;;;;;;12.93;81.18;102110.75;5024867;28;20129;-76
2022/05/14 01:30:01;;;;;;;38.58;6.80;;;;;;;12.96;81.31;102113.31;5024279;28;20116;-73
2022/05/14 01:32:26;;;;;;;36.70;6.10;;;;;;;12.92;81.52;102114.31;5045933;28;20021;-76
2022/05/14 01:34:52;;;;;;;28.25;5.82;;;;;;;12.94;81.21;102110.72;5043695;28;20044;-76
2022/05/14 01:37:18;;;;;;;36.05;7.10;;;;;;;12.95;81.57;102114.25;5043979;28;20080;-75
2022/05/14 01:39:43;;;;;;;39.40;7.22;;;;;;;12.95;81.29;102117.78;5043663;28;20108;-75
2022/05/14 01:42:09;;;;;;;33.53;6.80;;;;;;;12.90;81.66;102117.00;5044078;28;20108;-74
2022/05/14 01:44:34;;;;;;;33.95;6.60;;;;;;;12.87;81.65;102115.28;5044429;28;20056;-77
2022/05/14 01:46:59;;;;;;;39.17;8.10;;;;;;;12.86;81.84;102120.63;5044384;28;20021;-78
2022/05/14 01:49:25;;;;;;;38.28;7.88;;;;;;;12.86;81.39;102121.47;5044758;28;20101;-77
2022/05/14 01:51:50;;;;;;;36.33;6.68;;;;;;;12.80;82.01;102116.34;5043179;28;20041;-76
2022/05/14 01:54:15;;;;;;;42.92;7.30;;;;;;;12.78;82.06;102118.16;5043636;28;20025;-76
2022/05/14 01:56:41;;;;;;;37.33;8.00;;;;;;;12.82;82.44;102118.97;5042371;28;20037;-77
2022/05/14 01:59:06;;;;;;;38.53;8.75;;;;;;;12.85;82.53;102125.03;5044682;28;20040;-75
2022/05/14 02:01:34;;;;;;;40.95;7.93;;;;;;;12.86;82.24;102124.13;5043119;28;20033;-74
2022/05/14 02:04:11;;;;;;;44.47;8.43;;;;;;;12.88;81.91;102124.06;5040593;28;20653;-76
2022/05/14 02:06:37;;;;;;;31.10;7.10;;;;;;;12.84;82.02;102120.66;5043301;28;20484;-76
2022/05/14 02:09:03;;;;;;;27.90;7.38;;;;;;;12.75;82.63;102115.56;5042296;28;20034;-75
2022/05/14 02:11:29;;;;;;;31.02;7.15;;;;;;;12.79;82.60;102119.88;5044242;28;20166;-76
2022/05/14 02:13:55;;;;;;;34.75;7.68;;;;;;;12.77;82.45;102124.34;5043546;28;20112;-76
2022/05/14 02:16:20;;;;;;;36.35;7.43;;;;;;;12.78;82.30;102123.44;5044829;28;20021;-75
2022/05/14 02:18:46;;;;;;;38.92;7.85;;;;;;;12.77;82.29;102129.63;5043206;28;20044;-75
2022/05/14 02:21:12;;;;;;;35.92;8.50;;;;;;;12.66;83.37;102128.97;5044026;28;20025;-75
2022/05/14 02:23:38;;;;;;;33.78;8.00;;;;;;;12.72;83.02;102126.22;5042521;28;20024;-77
2022/05/14 02:26:05;;;;;;;41.05;8.30;;;;;;;12.65;83.57;102128.13;5044123;28;20028;-75
2022/05/14 02:28:30;;;;;;;46.17;8.70;;;;;;;12.76;83.40;102130.50;5043354;28;20660;-75
2022/05/14 02:30:55;;;;;;;33.30;7.70;;;;;;;12.72;83.29;102129.72;5042818;28;20033;-76
2022/05/14 02:33:21;;;;;;;35.28;8.00;;;;;;;12.71;82.93;102129.75;5041716;28;20044;-72
2022/05/14 02:35:46;;;;;;;40.47;8.23;;;;;;;12.66;83.12;102129.88;5042207;28;20021;-77
2022/05/14 02:38:12;;;;;;;35.92;8.15;;;;;;;12.71;83.23;102128.00;5039873;28;20422;-77
2022/05/14 02:40:38;;;;;;;39.85;8.18;;;;;;;12.61;83.20;102135.25;5043772;28;20057;-77
2022/05/14 02:43:03;;;;;;;39.28;7.93;;;;;;;12.68;83.39;102140.41;5042571;28;20056;-76
2022/05/14 02:45:29;;;;;;;40.10;8.00;;;;;;;12.70;83.20;102154.47;5043405;28;20029;-76
2022/05/14 02:47:54;;;;;;;40.28;8.55;;;;;;;12.63;83.67;102149.31;5025353;28;20013;-77
2022/05/14 02:50:20;;;;;;;32.67;7.60;;;;;;;12.61;83.05;102140.53;5042930;28;20032;-76
2022/05/14 02:52:45;;;;;;;30.23;6.80;;;;;;;12.62;83.10;102139.63;5043206;28;20013;-76
2022/05/14 02:55:11;;;;;;;38.35;7.60;;;;;;;12.58;83.31;102143.25;5043249;28;20056;-77
2022/05/14 02:57:37;;;;;;;30.38;7.07;;;;;;;12.55;83.24;102148.59;5043063;28;20028;-76
2022/05/14 03:00:05;;;;;;;36.67;8.02;;;;;;;12.45;83.32;102152.34;5005770;28;20038;-77
2022/05/14 03:02:31;;;;;;;32.83;7.10;;;;;;;12.49;83.84;102154.00;5023710;28;20028;-76
2022/05/14 03:04:56;;;;;;;32.90;7.90;;;;;;;12.43;83.50;102148.88;5042902;28;20033;-76
2022/05/14 03:07:22;;;;;;;39.70;8.93;;;;;;;12.47;84.11;102139.97;5041718;28;20059;-76
2022/05/14 03:09:47;;;;;;;41.05;9.52;;;;;;;12.51;84.07;102141.63;5043335;28;20029;-76
2022/05/14 03:12:14;;;;;;;42.13;9.68;;;;;;;12.53;84.20;102144.25;5043314;28;20025;-76
2022/05/14 03:14:39;;;;;;;42.03;8.13;;;;;;;12.55;83.73;102155.69;5042701;28;20525;-74
2022/05/14 03:17:05;;;;;;;41.13;8.50;;;;;;;12.53;84.12;102147.78;5025470;28;20037;-75
2022/05/14 03:19:31;;;;;;;37.42;8.02;;;;;;;12.49;84.00;102146.97;5043152;28;20082;-76
2022/05/14 03:21:56;;;;;;;35.03;7.40;;;;;;;12.48;84.02;102147.00;5043748;28;20017;-76
2022/05/14 03:24:23;;;;;;;30.08;7.30;;;;;;;12.53;83.76;102139.84;5041972;28;20032;-76
2022/05/14 03:26:49;;;;;;;39.60;7.88;;;;;;;12.50;83.88;102137.25;5043015;28;20048;-76
2022/05/14 03:29:14;;;;;;;37.10;8.18;;;;;;;12.51;84.20;102139.00;5043125;28;20483;-75
2022/05/14 03:31:40;;;;;;;32.78;7.93;;;;;;;12.45;84.12;102137.34;5025017;28;20035;-77
2022/05/14 03:34:07;;;;;;;31.13;7.55;;;;;;;12.44;84.19;102142.69;5044866;28;20554;-75
2022/05/14 03:36:33;;;;;;;42.08;7.28;;;;;;;12.46;84.32;102140.88;5046736;28;20132;-74
2022/05/14 03:38:58;;;;;;;36.95;7.68;;;;;;;12.45;84.08;102139.13;5046689;28;20609;-76
2022/05/14 03:41:24;;;;;;;30.15;6.63;;;;;;;12.36;84.61;102138.44;5046455;28;20059;-77
2022/05/14 03:43:49;;;;;;;37.72;8.10;;;;;;;12.39;84.52;102137.47;5046971;28;20017;-76
2022/05/14 03:46:15;;;;;;;40.40;7.93;;;;;;;12.34;84.88;102139.38;5045947;28;20140;-76
2022/05/14 03:48:41;;;;;;;41.42;8.73;;;;;;;12.40;84.87;102138.38;5029222;28;20471;-77
2022/05/14 03:51:07;;;;;;;40.97;8.82;;;;;;;12.40;84.98;102144.50;5045685;28;20029;-77
2022/05/14 03:53:32;;;;;;;46.17;9.02;;;;;;;12.47;84.87;102139.97;5046351;28;20031;-74
2022/05/14 03:55:58;;;;;;;45.72;9.05;;;;;;;12.52;84.59;102143.38;5046788;28;20352;-75
2022/05/14 03:58:23;;;;;;;39.15;7.65;;;;;;;12.55;84.39;102142.47;5045863;28;20033;-75
2022/05/14 04:00:48;;;;;;;41.58;9.43;;;;;;;12.59;84.42;102139.72;5046936;28;20043;-76
2022/05/14 04:03:14;;;;;;;38.65;7.90;;;;;;;12.60;84.70;102130.88;5045755;28;20025;-77
2022/05/14 04:05:40;;;;;;;36.38;7.47;;;;;;;12.64;84.40;102152.81;5046975;28;20132;-76
2022/05/14 04:08:05;;;;;;;28.35;7.38;;;;;;;12.71;84.10;102148.28;5044762;28;20052;-77
2022/05/14 04:10:31;;;;;;;34.55;7.55;;;;;;;12.72;84.09;102148.25;5046704;28;20028;-76
2022/05/14 04:12:56;;;;;;;33.03;7.93;;;;;;;12.76;83.73;102151.69;5045991;28;20017;-76
2022/05/14 04:15:23;;;;;;;29.88;7.53;;;;;;;12.74;83.63;102149.06;5046565;28;20028;-75
2022/05/14 04:17:50;;;;;;;35.75;7.53;;;;;;;12.72;83.15;102150.00;5045594;28;20082;-76
2022/05/14 04:20:15;;;;;;;34.42;6.97;;;;;;;12.76;83.09;102154.31;5045752;28;20491;-74
2022/05/14 04:22:40;;;;;;;35.00;7.07;;;;;;;12.67;82.98;102163.31;5027570;28;20119;-73
2022/05/14 04:25:06;;;;;;;32.33;7.70;;;;;;;12.73;82.88;102162.31;5044851;28;20234;-76
2022/05/14 04:27:32;;;;;;;33.28;7.63;;;;;;;12.75;83.46;102166.69;5046662;28;20318;-74
2022/05/14 04:29:57;;;;;;;31.52;7.53;;;;;;;12.78;83.95;102165.75;5045430;28;20048;-75
2022/05/14 04:32:24;;;;;;;34.70;7.93;;;;;;;12.89;83.28;102165.53;5046482;28;20086;-75
2022/05/14 04:34:49;;;;;;;29.75;7.57;;;;;;;12.99;83.04;102163.53;5045900;28;20028;-75
2022/05/14 04:37:14;;;;;;;26.83;7.63;;;;;;;13.14;82.35;102165.81;5045324;28;20040;-77
2022/05/14 04:39:40;;;;;;;32.88;7.13;;;;;;;13.23;82.08;102169.16;5046092;28;20021;-75
2022/05/14 04:42:07;;;;;;;22.02;7.18;;;;;;;13.30;81.42;102175.19;5045850;28;20025;-76
2022/05/14 04:44:34;;;;;;;31.33;7.75;;;;;;;13.33;81.49;102170.66;5027552;28;20056;-75
2022/05/14 04:47:00;;;;;;;31.45;6.57;;;;;;;13.51;81.13;102177.31;5045280;28;20025;-77
2022/05/14 04:49:27;;;;;;;27.55;6.72;;;;;;;13.54;80.85;102173.72;5045660;28;20024;-77
2022/05/14 04:51:53;;;;;;;28.17;6.70;;;;;;;13.62;80.66;102174.41;5044223;28;20108;-75
2022/05/14 04:54:18;;;;;;;27.20;6.20;;;;;;;13.65;80.18;102168.16;5045508;28;20171;-76
2022/05/14 04:56:44;;;;;;;28.25;5.80;;;;;;;13.73;79.85;102178.56;5026816;28;20028;-75
2022/05/14 04:59:10;;;;;;;30.40;6.72;;;;;;;13.77;79.66;102182.88;5045361;28;20025;-78
2022/05/14 05:01:35;;;;;;;35.95;7.72;;;;;;;13.83;79.35;102182.72;5045039;28;20387;-79
2022/05/14 05:04:00;;;;;;;37.55;7.90;;;;;;;14.01;78.89;102178.72;5045227;28;20040;-77
2022/05/14 05:06:27;;;;;;;34.60;8.23;;;;;;;13.97;78.61;102178.84;5044394;28;20076;-76
2022/05/14 05:08:52;;;;;;;24.75;6.35;;;;;;;14.13;77.90;102180.16;5044664;28;20021;-75
2022/05/14 05:11:21;;;;;;;23.88;5.80;;;;;;;14.24;77.98;102189.59;5044322;28;20494;-76
2022/05/14 05:13:47;;;;;;;27.05;5.70;;;;;;;14.30;77.72;102183.25;5045252;28;20028;-77
2022/05/14 05:16:12;;;;;;;15.30;5.60;;;;;;;14.41;77.55;102189.09;5044384;28;20037;-75
2022/05/14 05:18:37;;;;;;;24.35;6.57;;;;;;;14.48;76.95;102184.50;5046034;28;20059;-75
2022/05/14 05:21:03;;;;;;;22.27;5.90;;;;;;;14.48;76.94;102195.13;5033527;28;20099;-75
2022/05/14 05:23:29;;;;;;;26.90;6.00;;;;;;;14.51;76.71;102189.72;5024772;28;20017;-74
2022/05/14 05:25:56;;;;;;;25.20;6.88;;;;;;;14.47;76.56;102199.53;5033478;28;20120;-73
2022/05/14 05:28:22;;;;;;;16.15;6.70;;;;;;;14.51;76.03;102195.88;5026709;28;20039;-73
2022/05/14 05:30:47;;;;;;;21.27;6.25;;;;;;;14.64;75.95;102200.84;5044033;28;20036;-74
2022/05/14 05:33:15;;;;;;;26.27;6.63;;;;;;;14.63;75.94;102202.59;5044663;28;20021;-73
2022/05/14 05:35:41;;;;;;;23.85;6.35;;;;;;;14.79;75.41;102202.19;5043936;28;20489;-73
2022/05/14 05:38:06;;;;;;;26.90;5.95;;;;;;;14.90;75.21;102209.84;5043711;28;20025;-74
2022/05/14 05:40:33;;;;;;;24.38;6.20;;;;;;;15.02;74.80;102211.25;5043847;28;20107;-72
2022/05/14 05:42:59;;;;;;;23.73;6.15;;;;;;;15.07;74.42;102214.63;5045250;28;20052;-78
2022/05/14 05:45:24;;;;;;;24.20;5.85;;;;;;;15.10;73.70;102209.22;5025576;28;20037;-75
2022/05/14 05:47:50;;;;;;;25.38;6.15;;;;;;;15.09;74.17;102212.78;5027665;28;20029;-75
2022/05/14 05:50:15;;;;;;;21.15;6.25;;;;;;;15.06;74.43;102207.59;5043573;28;20534;-74
2022/05/14 05:52:40;;;;;;;27.33;7.07;;;;;;;15.02;73.98;102208.59;5042810;28;20033;-76
2022/05/14 05:57:51;;;;;;;23.40;6.95;;;;;;;14.96;74.47;102227.34;5043164;28;20048;-79
2022/05/14 06:00:19;;;;;;;22.55;6.10;;;;;;;15.00;74.69;102229.00;5044177;28;20025;-76
2022/05/14 06:02:46;;;;;;;26.38;5.75;;;;;;;15.17;74.27;102225.81;5025620;28;20033;-73
2022/05/14 06:05:12;;;;;;;27.38;7.18;;;;;;;15.14;73.43;102224.13;5043284;28;20044;-74
2022/05/14 06:07:39;;;;;;;24.60;5.97;;;;;;;15.20;73.29;102222.22;5043040;28;20043;-77
2022/05/14 06:10:06;;;;;;;22.50;6.57;;;;;;;15.19;73.12;102225.75;5025518;28;20024;-74
2022/05/14 06:12:31;;;;;;;22.80;6.47;;;;;;;15.16;73.01;102234.69;5044995;28;20440;-74
2022/05/14 06:14:56;;;;;;;20.40;6.55;;;;;;;15.12;73.56;102227.75;5044553;28;20060;-75
2022/05/14 06:17:22;;;;;;;21.13;6.07;;;;;;;15.17;73.47;102223.16;5044359;28;20025;-75
2022/05/14 06:19:48;;;;;;;26.23;6.53;;;;;;;15.28;72.92;102228.13;5043895;28;20028;-73
2022/05/14 06:22:13;;;;;;;17.70;6.25;;;;;;;15.38;72.23;102218.94;5026240;28;20029;-75
2022/05/14 06:24:39;;;;;;;18.00;5.50;;;;;;;15.44;72.02;102225.00;5043570;28;20043;-75
2022/05/14 06:27:05;;;;;;;21.98;5.38;;;;;;;15.58;71.91;102230.72;5044001;28;20055;-74
2022/05/14 06:29:31;;;;;;;24.65;6.03;;;;;;;15.64;70.89;102233.19;5043500;28;20037;-75
2022/05/14 06:31:57;;;;;;;20.33;5.25;;;;;;;15.81;70.47;102239.72;5043858;28;20447;-76
2022/05/14 06:34:22;;;;;;;22.35;5.70;;;;;;;16.04;70.02;102235.41;5043894;28;20094;-74
2022/05/14 06:36:49;;;;;;;19.15;5.13;;;;;;;16.28;69.81;102235.47;5042094;28;20430;-76
2022/05/14 06:39:15;;;;;;;19.98;5.28;;;;;;;16.55;68.80;102238.06;5044195;28;20021;-75
2022/05/14 06:41:40;;;;;;;24.80;5.47;;;;;;;16.68;68.47;102233.16;5043105;28;20102;-76
2022/05/14 06:44:07;;;;;;;20.65;5.57;;;;;;;16.82;67.61;102239.75;5026002;28;20017;-76
2022/05/14 06:46:33;;;;;;;15.00;5.00;;;;;;;16.90;67.18;102246.53;5043042;28;20037;-76
2022/05/14 06:48:58;;;;;;;22.38;4.95;;;;;;;16.91;66.97;102245.59;5043987;28;20033;-78
2022/05/14 06:51:25;;;;;;;17.65;4.60;;;;;;;16.97;66.91;102238.28;5025149;28;20029;-75
2022/05/14 06:53:52;;;;;;;21.30;5.13;;;;;;;17.09;66.36;102240.50;5024927;28;20029;-76
2022/05/14 06:56:19;;;;;;;22.70;5.40;;;;;;;17.07;65.98;102245.03;5025059;28;20028;-75
2022/05/14 06:58:48;;;;;;;19.92;5.35;;;;;;;16.96;66.28;102234.75;5025391;28;20021;-75
2022/05/14 07:01:15;;;;;;;21.50;5.75;;;;;;;16.83;66.60;102241.50;5043479;28;20463;-75
2022/05/14 07:06:43;;;;;;;23.92;6.25;;;;;;;16.69;66.69;102250.84;5043512;28;20079;-75
2022/05/14 07:09:12;;;;;;;16.92;4.88;;;;;;;16.83;67.04;102249.47;5044611;28;20060;-73
2022/05/14 07:11:40;;;;;;;24.65;5.05;;;;;;;16.82;67.08;102259.25;5047384;28;20028;-74
2022/05/14 07:14:05;;;;;;;19.60;4.65;;;;;;;16.97;66.57;102254.25;5046395;28;20098;-74
2022/05/14 07:16:31;;;;;;;14.23;4.47;;;;;;;17.01;66.51;102255.88;5047767;28;20056;-74
2022/05/14 07:18:56;;;;;;;22.27;4.22;;;;;;;17.14;66.30;102262.50;5047073;28;20029;-74
2022/05/14 07:21:22;;;;;;;22.48;5.60;;;;;;;17.23;66.02;102266.59;5047415;28;20021;-75
2022/05/14 07:23:47;;;;;;;24.73;5.63;;;;;;;17.41;65.27;102269.47;5046074;28;20029;-75
2022/05/14 07:26:12;;;;;;;19.73;5.28;;;;;;;17.71;64.03;102260.25;5046814;28;20017;-76
2022/05/14 07:28:38;;;;;;;20.58;4.38;;;;;;;17.85;63.49;102257.88;5041150;28;20490;-76
2022/05/14 07:31:03;;;;;;;15.63;4.72;;;;;;;17.77;63.38;102270.69;5027232;28;20361;-73
2022/05/14 07:33:30;;;;;;;21.58;4.72;;;;;;;17.80;63.49;102267.88;5030125;28;20025;-75
2022/05/14 07:35:58;;;;;;;20.70;5.20;;;;;;;17.77;63.10;102260.88;5047410;28;20017;-75
2022/05/14 07:38:23;;;;;;;23.90;5.00;;;;;;;17.97;63.01;102258.31;5027065;28;20021;-75
2022/05/14 07:40:49;;;;;;;22.95;4.88;;;;;;;18.14;61.99;102269.16;5029756;28;20021;-75
2022/05/14 07:43:17;;;;;;;17.95;4.32;;;;;;;18.33;61.34;102265.66;5046388;28;20021;-76
2022/05/14 07:45:45;;;;;;;22.42;5.30;;;;;;;18.18;60.17;102273.41;5047602;28;20136;-77
2022/05/14 07:48:28;;;;;;;20.10;3.92;;;;;;;17.91;60.98;102267.44;5046515;28;20036;-76
2022/05/14 07:50:54;;;;;;;17.58;3.92;;;;;;;18.08;60.50;102260.50;5027500;28;20033;-76
2022/05/14 07:53:20;;;;;;;17.83;3.83;;;;;;;18.40;59.88;102267.16;5025145;28;20056;-77
2022/05/14 07:55:45;;;;;;;22.90;4.35;;;;;;;18.46;58.50;102271.34;5025174;28;20626;-78
2022/05/14 07:58:11;;;;;;;24.92;4.28;;;;;;;18.25;58.77;102273.13;5045517;28;20063;-77
2022/05/14 08:00:37;;;;;;;17.88;3.67;;;;;;;18.27;58.77;102279.28;5045454;28;20522;-77
2022/05/14 08:03:03;;;;;;;16.10;3.97;;;;;;;18.38;59.08;102276.13;5046141;28;20120;-77
2022/05/14 08:05:29;;;;;;;23.13;4.07;;;;;;;18.39;59.34;102278.72;5045303;28;20017;-76
2022/05/14 08:07:54;;;;;;;21.73;4.85;;;;;;;18.36;58.88;102281.53;5046271;28;20057;-76
2022/05/14 08:10:20;;;;;;;22.60;4.32;;;;;;;18.44;58.32;102281.19;5045038;28;20022;-77
2022/05/14 08:12:48;;;;;;;20.40;4.18;;;;;;;18.55;56.39;102276.22;5024865;28;20037;-77
2022/05/14 08:15:15;;;;;;;26.85;4.75;;;;;;;18.58;57.12;102285.94;5025473;28;20018;-74
2022/05/14 08:17:41;;;;;;;21.52;4.97;;;;;;;18.63;55.13;102285.72;5044468;28;20044;-75
2022/05/14 08:20:07;;;;;;;15.90;4.70;;;;;;;18.72;54.47;102284.44;5044259;28;20058;-74
2022/05/14 08:25:16;;;;;;;23.52;5.18;;;;;;;18.39;54.96;102269.88;5045119;28;20039;-75
2022/05/14 08:27:45;;;;;;;15.38;4.43;;;;;;;18.62;54.47;102271.50;5044971;28;20450;-75
2022/05/14 08:30:13;;;;;;;16.67;4.07;;;;;;;18.41;54.14;102276.00;5045943;28;20360;-76
2022/05/14 08:32:38;;;;;;;28.67;4.68;;;;;;;18.43;53.46;102272.31;5045654;28;20041;-75
2022/05/14 08:35:04;;;;;;;21.73;4.38;;;;;;;18.48;53.38;102276.59;5045318;28;20017;-76
2022/05/14 08:37:29;;;;;;;25.08;4.35;;;;;;;18.71;53.33;102277.34;5027230;28;20033;-76
2022/05/14 08:39:55;;;;;;;16.90;4.05;;;;;;;18.95;53.58;102270.00;5045864;28;20100;-75
2022/05/14 08:42:20;;;;;;;27.35;5.57;;;;;;;18.90;53.83;102272.88;5044873;28;20078;-77
2022/05/14 08:44:46;;;;;;;18.83;4.20;;;;;;;19.01;53.08;102268.84;5046242;28;20090;-76
2022/05/14 08:47:28;;;;;;;17.13;4.20;;;;;;;19.06;52.44;102269.50;5044479;28;20021;-79
2022/05/14 08:49:55;;;;;;;22.40;4.57;;;;;;;19.18;51.33;102270.75;5046961;28;20446;-80
2022/05/14 08:52:22;;;;;;;22.08;4.43;;;;;;;19.19;51.20;102277.84;5027134;28;20438;-79
2022/05/14 08:54:48;;;;;;;23.90;4.80;;;;;;;19.17;51.07;102267.22;5047736;28;20067;-77
2022/05/14 08:57:32;;;;;;;20.70;4.50;;;;;;;19.08;51.13;102267.66;5046480;28;20036;-78
2022/05/14 08:59:59;;;;;;;20.65;4.07;;;;;;;18.94;51.69;102270.97;5049389;28;20112;-77
2022/05/14 09:02:41;;;;;;;15.63;4.13;;;;;;;19.09;51.49;102260.50;5027895;28;20106;-79
2022/05/14 09:05:10;;;;;;;15.05;4.30;;;;;;;19.14;51.69;102263.84;5031504;28;20036;-81
2022/05/14 09:07:36;;;;;;;;;;;;;;;19.34;51.43;102260.19;5046610;28;20045;-74
2022/05/14 09:10:05;;;;;;;22.65;4.57;;;;;;;19.24;50.81;102273.16;5045280;28;19922;-76
2022/05/14 09:12:33;;;;;;;18.43;3.87;;;;;;;19.39;50.38;102273.34;5044997;28;20059;-75
2022/05/14 09:15:12;;;;;;;9.43;3.33;;;;;;;19.42;50.63;102268.69;5008590;28;20786;-75
2022/05/14 09:17:37;;;;;;;17.67;4.47;;;;;;;19.63;50.14;102267.72;5007596;28;20034;-77
2022/05/14 09:20:03;;;;;;;20.50;5.07;;;;;;;19.50;50.05;102270.16;5044518;28;20475;-77
2022/05/14 09:22:37;;;;;;;13.98;4.68;;;;;;;19.72;50.38;102272.63;5026747;28;20099;-76
2022/05/14 09:25:40;;;;;;;22.02;4.40;;;;;;;19.91;48.45;102274.34;5027091;28;20024;-73
2022/05/14 09:28:10;;;;;;;25.20;4.10;;;;;;;19.81;49.53;102269.47;5043431;28;20041;-76
2022/05/14 09:30:41;;;;;;;19.60;4.40;;;;;;;20.05;48.81;102276.34;5045511;28;20036;-67
2022/05/14 09:33:08;;;;;;;20.40;4.75;;;;;;;20.43;49.18;102264.56;5024699;28;20040;-66
2022/05/14 09:35:34;;;;;;;19.17;3.97;;;;;;;20.82;47.29;102270.53;5026998;28;20056;-71
2022/05/14 09:38:18;;;;;;;24.38;4.45;;;;;;;20.29;47.53;102273.34;5043712;28;20487;-71
2022/05/14 09:40:44;;;;;;;17.83;4.22;;;;;;;20.74;46.58;102276.28;5007404;28;20491;-71
2022/05/14 09:43:11;;;;;;;20.65;3.65;;;;;;;20.96;45.63;102280.53;5024014;28;20061;-71
2022/05/14 09:45:38;;;;;;;17.25;4.35;;;;;;;21.05;45.33;102268.41;5042998;28;20017;-70
2022/05/14 09:48:19;;;;;;;19.08;4.03;;;;;;;21.11;44.69;102268.09;5043579;28;20133;-71
2022/05/14 09:50:50;;;;;;;21.42;3.85;;;;;;;21.08;45.66;102271.78;5043901;28;20025;-72
2022/05/14 09:53:27;;;;;;;15.65;4.50;;;;;;;21.17;45.83;102267.75;5043114;28;20039;-70
2022/05/14 09:56:07;;;;;;;23.52;4.53;;;;;;;20.97;45.76;102282.25;5024712;28;20037;-72
2022/05/14 09:58:58;;;;;;;20.60;4.35;;;;;;;21.35;45.13;102278.38;5022548;28;20044;-71
2022/05/14 10:02:14;;;;;;;25.70;4.78;;;;;;;22.01;44.24;102274.59;5024341;28;20116;-71
2022/05/14 10:04:39;;;;;;;15.30;4.53;;;;;;;22.05;44.73;102278.81;4948919;28;20029;-71
2022/05/14 10:07:15;;;;;;;21.63;4.90;;;;;;;22.67;42.26;102267.00;4961733;28;20072;-70
2022/05/14 10:09:49;;;;;;;17.67;4.15;;;;;;;22.39;44.54;102271.38;4985049;28;20658;-70
2022/05/14 10:12:34;;;;;;;21.98;3.90;;;;;;;22.72;42.06;102277.47;5023828;28;20071;-71
2022/05/14 10:15:15;;;;;;;12.20;3.58;;;;;;;22.74;41.36;102274.69;5022277;28;20040;-71
2022/05/14 10:17:44;;;;;;;12.02;3.38;;;;;;;22.75;41.96;102274.59;5024078;28;20041;-72
2022/05/14 10:20:27;;;;;;;20.00;4.13;;;;;;;22.88;40.61;102272.00;5023027;28;20041;-70
2022/05/14 10:26:46;;;;;;;15.82;4.35;;;;;;;23.12;38.53;102271.38;5022114;28;20134;-70
2022/05/14 10:29:24;;;;;;;12.43;3.53;;;;;;;23.16;37.89;102280.09;5023032;28;20638;-73
2022/05/14 10:32:00;;;;;;;18.33;4.70;;;;;;;22.93;38.14;102294.06;5022666;28;20025;-72
2022/05/14 10:34:34;;;;;;;19.52;3.88;;;;;;;23.09;38.72;102277.78;5021804;28;20075;-71
2022/05/14 10:37:03;;;;;;;16.38;4.18;;;;;;;22.97;38.03;102279.44;5024037;28;20044;-72
2022/05/14 10:39:34;;;;;;;13.38;3.95;;;;;;;22.97;39.50;102279.44;5023696;28;20022;-72
2022/05/14 10:42:13;;;;;;;18.30;4.20;;;;;;;23.37;38.97;102275.16;5021413;28;20622;-71
2022/05/14 10:44:52;;;;;;;17.58;3.83;;;;;;;23.44;37.89;102278.28;5020107;28;20040;-74
2022/05/14 10:47:18;;;;;;;12.52;3.85;;;;;;;23.17;38.32;102280.00;5021275;28;20017;-72
2022/05/14 10:49:52;;;;;;;18.77;3.92;;;;;;;23.44;38.10;102279.16;5021260;28;20377;-71
2022/05/14 10:52:18;;;;;;;16.95;3.97;;;;;;;23.03;39.59;102283.56;5020419;28;20471;-70
2022/05/14 10:54:44;;;;;;;16.42;4.65;;;;;;;23.59;38.78;102279.97;5004872;28;20049;-71
2022/05/14 10:57:15;;;;;;;15.30;4.88;;;;;;;23.49;38.17;102278.88;5037982;28;20030;-71
2022/05/14 11:00:00;;;;;;;17.17;4.22;;;;;;;23.55;38.18;102273.09;5022657;28;20079;-69
2022/05/14 11:02:34;;;;;;;15.07;3.53;;;;;;;23.66;39.54;102283.09;5005098;28;20091;-70
2022/05/14 11:05:00;;;;;;;18.77;4.63;;;;;;;24.16;37.30;102282.47;5022907;28;20092;-71
2022/05/14 11:07:34;;;;;;;23.77;4.53;;;;;;;24.33;37.12;102293.91;5019963;28;20041;-71
2022/05/14 11:10:39;;;;;;;16.20;4.80;;;;;;;24.20;36.94;102283.13;5023473;28;20780;-70
2022/05/14 11:13:09;;;;;;;18.55;4.20;;;;;;;24.08;37.53;102292.91;4928437;28;20477;-70
2022/05/14 11:15:35;;;;;;;15.77;4.55;;;;;;;24.10;37.26;102288.25;4961534;28;20031;-71
2022/05/14 11:18:08;;;;;;;14.43;4.00;;;;;;;24.06;38.15;102282.22;4991683;28;20121;-71
2022/05/14 11:20:34;;;;;;;10.75;3.78;;;;;;;23.72;38.40;102279.16;5022741;28;20083;-72
2022/05/14 11:23:08;;;;;;;20.23;4.82;;;;;;;23.60;39.81;102280.84;5022186;28;20022;-72
2022/05/14 11:25:34;;;;;;;20.58;4.85;;;;;;;24.23;37.41;102280.22;5023088;28;20037;-72
2022/05/14 11:28:12;;;;;;;12.77;3.88;;;;;;;24.28;36.63;102280.75;5020798;28;20028;-71
2022/05/14 11:30:42;;;;;;;;;;;;;;;24.29;36.31;102277.09;5022973;28;20039;-71
2022/05/14 11:33:27;;;;;;;24.00;4.40;;;;;;;24.11;36.78;102279.22;5020579;28;20027;-77
2022/05/14 11:36:01;;;;;;;14.40;3.58;;;;;;;23.97;37.75;102282.84;5011781;28;20034;-71
2022/05/14 11:38:26;;;;;;;16.83;4.00;;;;;;;23.86;38.07;102275.50;5022538;28;20029;-72